createdAt,value
2023-02-07T00:01:25.387Z,3.30
2023-02-07T00:03:52.627Z,3.47
2023-02-07T00:06:21.996Z,3.50
2023-02-07T00:11:17.700Z,3.28
2023-02-07T00:13:44.993Z,3.10
2023-02-07T00:16:12.506Z,3.42
2023-02-07T00:18:40.162Z,3.50
2023-02-07T00:21:09.116Z,3.45
2023-02-07T00:23:36.519Z,3.40
2023-02-07T00:26:04.368Z,3.38
2023-02-07T00:28:31.176Z,3.33
2023-02-07T00:31:16.215Z,3.50
2023-02-07T00:33:44.432Z,3.40
2023-02-07T00:36:13.651Z,3.65
2023-02-07T00:38:40.524Z,3.40
2023-02-07T00:41:07.428Z,3.35
2023-02-07T00:43:34.806Z,3.15
2023-02-07T00:46:03.700Z,3.72
2023-02-07T00:50:58.450Z,3.30
2023-02-07T00:53:26.080Z,3.30
2023-02-07T00:55:53.073Z,3.22
2023-02-07T00:58:19.996Z,3.10
2023-02-07T01:00:47.106Z,3.33
2023-02-07T01:03:14.040Z,3.58
2023-02-07T01:05:41.130Z,3.25
2023-02-07T01:08:08.048Z,3.30
2023-02-07T01:10:36.097Z,3.47
2023-02-07T01:13:02.840Z,3.45
2023-02-07T01:15:29.710Z,3.42
2023-02-07T01:17:56.471Z,3.35
2023-02-07T01:20:23.259Z,3.30
2023-02-07T01:22:50.039Z,3.28
2023-02-07T01:25:16.839Z,3.28
2023-02-07T01:27:43.538Z,3.50
2023-02-07T01:30:11.166Z,3.42
2023-02-07T01:32:38.056Z,3.40
2023-02-07T01:35:05.006Z,3.00
2023-02-07T01:37:32.527Z,3.20
2023-02-07T01:39:59.302Z,3.30
2023-02-07T01:42:27.680Z,2.80
2023-02-07T01:44:54.385Z,3.40
2023-02-07T01:47:22.532Z,3.10
2023-02-07T01:49:51.240Z,3.08
2023-02-07T01:52:23.172Z,3.00
2023-02-07T01:54:53.793Z,2.75
2023-02-07T01:57:23.012Z,2.95
2023-02-07T01:59:53.160Z,3.10
2023-02-07T02:02:22.037Z,3.40
2023-02-07T02:04:51.568Z,3.38
2023-02-07T02:09:45.068Z,2.88
2023-02-07T02:12:25.590Z,2.95
2023-02-07T02:15:10.587Z,3.30
2023-02-07T02:17:57.153Z,3.10
2023-02-07T02:20:50.424Z,3.20
2023-02-07T02:23:35.654Z,3.03
2023-02-07T02:26:17.427Z,3.55
2023-02-07T02:29:18.616Z,3.10
2023-02-07T02:32:00.147Z,2.90
2023-02-07T02:34:38.541Z,3.10
2023-02-07T02:37:22.162Z,3.20
2023-02-07T02:40:08.480Z,2.85
2023-02-07T02:42:42.652Z,3.20
2023-02-07T02:45:18.715Z,3.03
2023-02-07T02:47:47.984Z,2.90
2023-02-07T02:50:22.571Z,3.28
2023-02-07T02:52:51.192Z,2.70
2023-02-07T02:55:49.812Z,2.60
2023-02-07T02:58:38.701Z,3.10
2023-02-07T03:01:43.179Z,2.78
2023-02-07T03:04:15.760Z,2.67
2023-02-07T03:07:02.686Z,2.78
2023-02-07T03:09:34.011Z,2.90
2023-02-07T03:12:20.997Z,3.08
2023-02-07T03:15:04.931Z,3.00
2023-02-07T03:17:48.586Z,3.10
2023-02-07T03:20:23.288Z,3.10
2023-02-07T03:22:51.826Z,3.00
2023-02-07T03:25:20.622Z,3.05
2023-02-07T03:27:48.782Z,3.10
2023-02-07T03:30:17.978Z,2.88
2023-02-07T03:32:50.585Z,2.90
2023-02-07T03:35:30.766Z,2.92
2023-02-07T03:37:59.514Z,2.75
2023-02-07T03:40:29.701Z,2.80
2023-02-07T03:43:06.992Z,2.83
2023-02-07T03:45:34.183Z,2.90
2023-02-07T03:48:00.918Z,2.85
2023-02-07T03:50:27.615Z,3.13
2023-02-07T03:52:54.294Z,2.90
2023-02-07T03:55:21.101Z,3.03
2023-02-07T03:57:47.836Z,3.17
2023-02-07T04:00:15.718Z,2.88
2023-02-07T04:02:42.902Z,2.90
2023-02-07T04:05:09.619Z,3.00
2023-02-07T04:07:37.693Z,2.72
2023-02-07T04:10:05.801Z,3.15
2023-02-07T04:12:35.296Z,3.00
2023-02-07T04:15:03.133Z,3.17
2023-02-07T04:17:31.408Z,2.75
2023-02-07T04:19:58.528Z,2.80
2023-02-07T04:22:25.227Z,3.00
2023-02-07T04:24:51.969Z,2.80
2023-02-07T04:27:18.678Z,2.90
2023-02-07T04:29:45.429Z,3.10
2023-02-07T04:32:12.267Z,2.75
2023-02-07T04:34:39.032Z,2.95
2023-02-07T04:37:05.776Z,3.03
2023-02-07T04:39:32.575Z,2.60
2023-02-07T04:41:59.268Z,3.15
2023-02-07T04:44:25.986Z,2.83
2023-02-07T04:46:52.778Z,2.75
2023-02-07T04:49:19.556Z,2.90
2023-02-07T04:51:46.301Z,2.78
2023-02-07T04:54:13.327Z,2.90
2023-02-07T04:56:40.051Z,3.08
2023-02-07T04:59:06.747Z,3.10
2023-02-07T05:01:33.619Z,2.97
2023-02-07T05:04:00.410Z,2.90
2023-02-07T05:06:27.164Z,2.95
2023-02-07T05:08:53.890Z,2.80
2023-02-07T05:11:20.763Z,3.00
2023-02-07T05:13:47.488Z,2.78
2023-02-07T05:16:14.392Z,2.80
2023-02-07T05:18:41.175Z,3.17
2023-02-07T05:21:07.862Z,2.80
2023-02-07T05:23:34.636Z,3.13
2023-02-07T05:26:01.344Z,2.97
2023-02-07T05:28:28.031Z,3.10
2023-02-07T05:30:56.507Z,3.00
2023-02-07T05:33:23.319Z,2.95
2023-02-07T05:35:50.043Z,3.40
2023-02-07T05:38:18.970Z,3.00
2023-02-07T05:40:46.170Z,3.13
2023-02-07T05:43:13.508Z,3.17
2023-02-07T05:45:40.512Z,3.10
2023-02-07T05:48:07.644Z,2.85
2023-02-07T05:50:34.451Z,3.00
2023-02-07T05:53:09.902Z,3.42
2023-02-07T05:55:37.172Z,2.75
2023-02-07T05:58:04.140Z,3.05
2023-02-07T06:00:30.887Z,3.72
2023-02-07T06:02:57.674Z,3.60
2023-02-07T06:05:24.835Z,3.08
2023-02-07T06:07:52.053Z,3.28
2023-02-07T06:10:19.147Z,3.20
2023-02-07T06:12:45.840Z,2.92
2023-02-07T06:15:12.603Z,3.20
2023-02-07T06:17:39.418Z,3.38
2023-02-07T06:20:06.560Z,3.20
2023-02-07T06:22:33.265Z,3.00
2023-02-07T06:25:00.027Z,3.50
2023-02-07T06:27:26.737Z,3.30
2023-02-07T06:29:53.440Z,3.28
2023-02-07T06:32:20.207Z,3.30
2023-02-07T06:34:46.887Z,3.40
2023-02-07T06:37:13.585Z,3.28
2023-02-07T06:39:40.396Z,3.10
2023-02-07T06:42:07.130Z,3.17
2023-02-07T06:44:33.830Z,3.30
2023-02-07T06:47:00.602Z,3.35
2023-02-07T06:49:27.312Z,3.22
2023-02-07T06:51:54.018Z,3.30
2023-02-07T06:54:20.843Z,3.25
2023-02-07T06:56:47.562Z,3.58
2023-02-07T06:59:14.479Z,3.13
2023-02-07T07:01:42.036Z,3.45
2023-02-07T07:04:08.823Z,3.45
2023-02-07T07:06:35.798Z,3.65
2023-02-07T07:09:02.800Z,3.50
2023-02-07T07:11:29.490Z,3.38
2023-02-07T07:13:56.276Z,3.50
2023-02-07T07:16:23.096Z,3.78
2023-02-07T07:18:49.862Z,3.20
2023-02-07T07:21:16.577Z,3.83
2023-02-07T07:23:43.356Z,3.67
2023-02-07T07:26:10.049Z,3.60
2023-02-07T07:28:36.752Z,4.25
2023-02-07T07:31:05.495Z,3.70
2023-02-07T07:33:32.640Z,3.55
2023-02-07T07:36:00.624Z,3.70
2023-02-07T07:38:27.858Z,3.58
2023-02-07T07:40:54.652Z,3.92
2023-02-07T07:43:21.972Z,3.70
2023-02-07T07:45:57.223Z,4.15
2023-02-07T07:48:24.494Z,5.90
2023-02-07T07:50:51.826Z,7.28
2023-02-07T07:53:19.337Z,7.35
2023-02-07T07:55:54.042Z,7.20
2023-02-07T07:58:21.773Z,7.28
2023-02-07T08:00:48.515Z,7.85
2023-02-07T08:03:16.724Z,7.68
2023-02-07T08:05:44.426Z,7.20
2023-02-07T08:08:11.743Z,8.32
2023-02-07T08:10:39.516Z,6.97
2023-02-07T08:13:06.683Z,7.13
2023-02-07T08:15:33.834Z,6.63
2023-02-07T08:18:00.547Z,7.03
2023-02-07T08:20:27.378Z,6.78
2023-02-07T08:22:54.083Z,6.85
2023-02-07T08:25:20.776Z,6.22
2023-02-07T08:27:47.514Z,6.15
2023-02-07T08:30:15.900Z,6.40
2023-02-07T08:32:42.823Z,6.15
2023-02-07T08:35:10.151Z,5.95
2023-02-07T08:37:37.897Z,5.70
2023-02-07T08:40:06.092Z,5.78
2023-02-07T08:42:33.045Z,5.85
2023-02-07T08:44:59.780Z,5.47
2023-02-07T08:47:26.670Z,5.50
2023-02-07T08:49:53.533Z,5.55
2023-02-07T08:52:20.257Z,5.40
2023-02-07T08:54:46.966Z,5.28
2023-02-07T08:57:13.749Z,4.80
2023-02-07T08:59:40.476Z,5.43
2023-02-07T09:02:07.246Z,5.32
2023-02-07T09:04:36.353Z,5.32
2023-02-07T09:07:03.122Z,5.32
2023-02-07T09:09:29.826Z,5.15
2023-02-07T09:11:56.588Z,4.82
2023-02-07T09:14:23.326Z,5.38
2023-02-07T09:16:50.100Z,5.68
2023-02-07T09:19:16.957Z,5.22
2023-02-07T09:21:43.904Z,5.63
2023-02-07T09:24:10.620Z,5.20
2023-02-07T09:26:38.961Z,5.50
2023-02-07T09:29:07.075Z,5.43
2023-02-07T09:31:34.723Z,5.88
2023-02-07T09:34:02.718Z,5.22
2023-02-07T09:36:30.776Z,5.10
2023-02-07T09:38:58.448Z,5.40
2023-02-07T09:41:52.700Z,5.25
2023-02-07T09:44:48.037Z,5.50
2023-02-07T09:47:19.033Z,5.10
2023-02-07T09:50:21.509Z,5.30
2023-02-07T09:53:05.263Z,5.60
2023-02-07T09:56:01.319Z,5.10
2023-02-07T09:58:50.563Z,5.60
2023-02-07T10:01:47.538Z,6.70
2023-02-07T10:04:23.093Z,8.60
2023-02-07T10:06:53.399Z,8.45
2023-02-07T10:09:39.949Z,7.80
2023-02-07T10:12:30.508Z,7.47
2023-02-07T10:15:06.718Z,6.63
2023-02-07T10:17:36.963Z,6.97
2023-02-07T10:20:19.182Z,6.60
2023-02-07T10:23:13.569Z,6.60
2023-02-07T10:25:58.756Z,6.55
2023-02-07T10:28:36.634Z,5.85
2023-02-07T10:31:07.027Z,5.82
2023-02-07T10:33:37.067Z,5.75
2023-02-07T10:36:05.311Z,5.70
2023-02-07T10:39:08.532Z,5.47
2023-02-07T10:41:38.346Z,6.25
2023-02-07T10:44:14.060Z,5.90
2023-02-07T10:46:43.249Z,5.68
2023-02-07T10:49:24.607Z,5.88
2023-02-07T10:51:52.285Z,5.30
2023-02-07T10:54:24.255Z,5.13
2023-02-07T10:56:55.990Z,5.55
2023-02-07T10:59:46.112Z,5.55
2023-02-07T11:02:31.973Z,5.22
2023-02-07T11:05:23.130Z,5.80
2023-02-07T11:07:59.266Z,5.45
2023-02-07T11:10:37.592Z,5.47
2023-02-07T11:13:06.410Z,5.30
2023-02-07T11:15:54.352Z,5.20
2023-02-07T11:18:29.633Z,4.80
2023-02-07T11:20:56.467Z,4.97
2023-02-07T11:23:23.754Z,4.82
2023-02-07T11:25:54.019Z,4.65
2023-02-07T11:28:25.689Z,4.78
2023-02-07T11:31:05.539Z,4.82
2023-02-07T11:33:35.067Z,4.85
2023-02-07T11:36:14.996Z,4.35
2023-02-07T11:38:48.196Z,4.63
2023-02-07T11:41:24.547Z,4.32
2023-02-07T11:44:03.099Z,4.30
2023-02-07T11:46:38.409Z,4.30
2023-02-07T11:49:26.035Z,4.28
2023-02-07T11:51:55.725Z,4.50
2023-02-07T11:54:22.874Z,4.20
2023-02-07T11:56:55.335Z,4.25
2023-02-07T11:59:24.887Z,4.40
2023-02-07T12:01:54.869Z,3.97
2023-02-07T12:04:32.835Z,4.03
2023-02-07T12:07:25.808Z,4.30
2023-02-07T12:09:56.240Z,4.18
2023-02-07T12:12:33.919Z,4.30
2023-02-07T12:15:06.740Z,4.53
2023-02-07T12:17:52.923Z,4.28
2023-02-07T12:20:28.581Z,4.13
2023-02-07T12:23:41.419Z,4.30
2023-02-07T12:26:32.962Z,3.97
2023-02-07T12:29:18.517Z,3.92
2023-02-07T12:31:57.555Z,4.00
2023-02-07T12:37:35.304Z,4.13
2023-02-07T12:40:19.998Z,3.90
2023-02-07T12:42:51.437Z,4.00
2023-02-07T12:46:01.632Z,4.13
2023-02-07T12:48:39.976Z,3.55
2023-02-07T12:51:18.055Z,3.93
2023-02-07T12:53:53.482Z,4.28
2023-02-07T12:56:45.711Z,3.70
2023-02-07T12:59:45.676Z,4.20
2023-02-07T13:02:15.464Z,4.00
2023-02-07T13:04:57.943Z,4.00
2023-02-07T13:07:59.226Z,4.25
2023-02-07T13:10:47.464Z,4.05
2023-02-07T13:13:32.857Z,4.27
2023-02-07T13:16:15.983Z,4.35
2023-02-07T13:18:56.221Z,4.03
2023-02-07T13:21:54.489Z,4.43
2023-02-07T13:24:23.192Z,4.03
2023-02-07T13:26:55.677Z,4.55
2023-02-07T13:29:23.152Z,4.15
2023-02-07T13:31:52.649Z,3.92
2023-02-07T13:34:23.564Z,4.25
2023-02-07T13:36:52.573Z,4.28
2023-02-07T13:39:58.686Z,4.07
2023-02-07T13:42:31.974Z,3.97
2023-02-07T13:45:12.221Z,4.13
2023-02-07T13:47:49.795Z,3.88
2023-02-07T13:50:30.730Z,4.13
2023-02-07T13:53:03.611Z,4.05
2023-02-07T13:55:38.069Z,4.18
2023-02-07T13:58:30.264Z,4.07
2023-02-07T14:01:00.229Z,3.90
2023-02-07T14:03:32.237Z,3.92
2023-02-07T14:06:23.624Z,3.80
2023-02-07T14:09:17.119Z,4.10
2023-02-07T14:11:47.291Z,3.95
2023-02-07T14:14:24.155Z,3.83
2023-02-07T14:17:03.133Z,3.67
2023-02-07T14:19:45.559Z,3.70
2023-02-07T14:22:28.522Z,3.70
2023-02-07T14:25:07.278Z,3.95
2023-02-07T14:27:43.717Z,3.95
2023-02-07T14:30:16.710Z,4.55
2023-02-07T14:33:15.434Z,4.28
2023-02-07T14:36:05.978Z,4.13
2023-02-07T14:38:41.250Z,4.13
2023-02-07T14:41:12.724Z,3.70
2023-02-07T14:44:07.885Z,3.80
2023-02-07T14:46:41.337Z,3.85
2023-02-07T14:49:14.984Z,3.85
2023-02-07T14:51:43.130Z,3.70
2023-02-07T14:54:15.932Z,3.80
2023-02-07T14:56:45.581Z,3.35
2023-02-07T14:59:17.686Z,3.10
2023-02-07T15:01:44.472Z,3.30
2023-02-07T15:04:12.087Z,3.13
2023-02-07T15:06:44.614Z,2.80
2023-02-07T15:09:36.764Z,3.30
2023-02-07T15:12:15.936Z,2.70
2023-02-07T15:14:49.157Z,2.90
2023-02-07T15:17:21.084Z,2.65
2023-02-07T15:19:47.799Z,2.70
2023-02-07T15:22:29.478Z,3.17
2023-02-07T15:24:58.050Z,3.28
2023-02-07T15:27:29.360Z,3.10
2023-02-07T15:29:59.759Z,3.25
2023-02-07T15:32:31.534Z,3.35
2023-02-07T15:35:18.598Z,2.92
2023-02-07T15:37:47.274Z,2.80
2023-02-07T15:40:20.259Z,2.75
2023-02-07T15:42:54.807Z,2.72
2023-02-07T15:45:32.688Z,2.80
2023-02-07T15:48:01.930Z,3.17
2023-02-07T15:52:58.050Z,2.90
2023-02-07T15:55:32.215Z,2.60
2023-02-07T15:57:59.072Z,3.25
2023-02-07T16:00:28.814Z,2.80
2023-02-07T16:03:07.701Z,2.60
2023-02-07T16:05:39.336Z,2.58
2023-02-07T16:08:26.372Z,2.65
2023-02-07T16:10:53.394Z,2.85
2023-02-07T16:13:22.424Z,2.78
2023-02-07T16:15:55.675Z,2.30
2023-02-07T16:18:40.883Z,2.72
2023-02-07T16:21:19.373Z,2.40
2023-02-07T16:23:47.938Z,2.67
2023-02-07T16:26:17.744Z,3.00
2023-02-07T16:28:45.531Z,4.25
2023-02-07T16:31:12.420Z,5.50
2023-02-07T16:33:40.068Z,6.78
2023-02-07T16:36:10.412Z,5.53
2023-02-07T16:38:37.194Z,5.63
2023-02-07T16:41:04.512Z,6.72
2023-02-07T16:43:35.800Z,6.90
2023-02-07T16:46:02.613Z,6.72
2023-02-07T16:48:29.522Z,6.25
2023-02-07T16:50:57.687Z,6.18
2023-02-07T16:53:25.345Z,5.95
2023-02-07T16:55:53.681Z,6.72
2023-02-07T16:58:31.111Z,6.63
2023-02-07T17:00:58.020Z,6.13
2023-02-07T17:03:24.770Z,6.15
2023-02-07T17:05:51.502Z,6.22
2023-02-07T17:08:27.012Z,6.40
2023-02-07T17:10:58.518Z,6.63
2023-02-07T17:13:25.498Z,7.13
2023-02-07T17:15:52.218Z,6.07
2023-02-07T17:18:20.581Z,6.15
2023-02-07T17:20:47.660Z,6.70
2023-02-07T17:23:14.636Z,6.28
2023-02-07T17:25:42.338Z,6.22
2023-02-07T17:28:15.874Z,5.32
2023-02-07T17:30:42.707Z,6.13
2023-02-07T17:33:10.331Z,6.07
2023-02-07T17:35:38.044Z,6.15
2023-02-07T17:38:05.801Z,6.03
2023-02-07T17:40:38.626Z,5.55
2023-02-07T17:43:07.673Z,5.15
2023-02-07T17:45:36.946Z,5.18
2023-02-07T17:50:34.400Z,5.15
2023-02-07T17:53:01.656Z,5.20
2023-02-07T17:55:30.484Z,4.85
2023-02-07T17:57:57.616Z,4.75
2023-02-07T18:00:33.552Z,4.97
2023-02-07T18:03:00.516Z,4.32
2023-02-07T18:05:27.311Z,4.82
2023-02-07T18:07:54.108Z,4.93
2023-02-07T18:10:24.704Z,4.45
2023-02-07T18:12:51.463Z,4.75
2023-02-07T18:15:18.892Z,4.75
2023-02-07T18:17:49.341Z,4.72
2023-02-07T18:20:31.129Z,4.38
2023-02-07T18:22:58.700Z,4.85
2023-02-07T18:25:26.911Z,4.53
2023-02-07T18:27:54.279Z,4.25
2023-02-07T18:30:23.565Z,4.20
2023-02-07T18:35:17.829Z,4.22
2023-02-07T18:37:45.444Z,4.32
2023-02-07T18:40:13.027Z,4.35
2023-02-07T18:42:39.723Z,3.72
2023-02-07T18:45:07.194Z,4.70
2023-02-07T18:47:34.050Z,4.28
2023-02-07T18:50:00.960Z,3.83
2023-02-07T18:52:27.742Z,3.83
2023-02-07T18:54:54.440Z,3.65
2023-02-07T18:57:21.138Z,4.00
2023-02-07T18:59:47.840Z,4.40
2023-02-07T19:02:14.639Z,4.00
2023-02-07T19:04:41.574Z,4.18
2023-02-07T19:07:08.299Z,3.60
2023-02-07T19:09:35.088Z,3.80
2023-02-07T19:12:01.791Z,3.70
2023-02-07T19:14:31.234Z,4.28
2023-02-07T19:16:58.589Z,4.00
2023-02-07T19:19:28.079Z,3.75
2023-02-07T19:21:55.463Z,4.00
2023-02-07T19:24:23.453Z,3.72
2023-02-07T19:26:52.967Z,3.67
2023-02-07T19:29:27.833Z,3.80
2023-02-07T19:31:59.596Z,3.92
2023-02-07T19:34:26.516Z,3.67
2023-02-07T19:36:53.834Z,3.58
2023-02-07T19:39:21.073Z,4.00
2023-02-07T19:41:47.875Z,4.00
2023-02-07T19:44:14.720Z,3.97
2023-02-07T19:46:41.539Z,3.65
2023-02-07T19:49:11.817Z,3.80
2023-02-07T19:51:40.642Z,3.90
2023-02-07T19:54:07.399Z,3.78
2023-02-07T19:56:34.636Z,3.83
2023-02-07T19:59:03.494Z,4.05
2023-02-07T20:01:31.421Z,3.85
2023-02-07T20:03:58.317Z,3.85
2023-02-07T20:06:31.364Z,4.30
2023-02-07T20:09:00.664Z,3.67
2023-02-07T20:11:28.170Z,3.80
2023-02-07T20:13:56.272Z,3.88
2023-02-07T20:16:24.834Z,3.97
2023-02-07T20:18:52.684Z,4.18
2023-02-07T20:21:21.962Z,3.80
2023-02-07T20:26:31.772Z,3.63
2023-02-07T20:29:00.593Z,3.80
2023-02-07T20:31:27.922Z,3.80
2023-02-07T20:33:55.297Z,4.10
2023-02-07T20:36:22.223Z,4.50
2023-02-07T20:38:49.778Z,4.15
2023-02-07T20:41:29.161Z,4.00
2023-02-07T20:43:57.994Z,4.05
2023-02-07T20:46:26.014Z,3.80
2023-02-07T20:49:00.526Z,4.00
2023-02-07T20:51:28.066Z,4.10
2023-02-07T20:53:59.406Z,4.13
2023-02-07T20:56:26.920Z,4.10
2023-02-07T20:58:54.863Z,4.10
2023-02-07T21:01:24.209Z,3.72
2023-02-07T21:03:52.354Z,4.10
2023-02-07T21:06:19.886Z,3.78
2023-02-07T21:08:46.722Z,4.20
2023-02-07T21:11:15.215Z,3.95
2023-02-07T21:13:44.723Z,3.78
2023-02-07T21:16:12.692Z,3.47
2023-02-07T21:18:39.429Z,4.07
2023-02-07T21:21:07.853Z,3.95
2023-02-07T21:23:35.220Z,3.83
2023-02-07T21:26:06.431Z,4.15
2023-02-07T21:28:33.882Z,4.10
2023-02-07T21:31:05.349Z,3.70
2023-02-07T21:33:32.108Z,3.88
2023-02-07T21:36:09.416Z,4.20
2023-02-07T21:38:37.566Z,4.05
2023-02-07T21:41:07.450Z,3.78
2023-02-07T21:43:35.093Z,3.83
2023-02-07T21:46:13.197Z,3.90
2023-02-07T21:48:41.633Z,3.60
2023-02-07T21:51:10.952Z,3.80
2023-02-07T21:56:07.885Z,3.83
2023-02-07T21:58:34.902Z,4.00
2023-02-07T22:01:11.850Z,3.85
2023-02-07T22:03:40.152Z,3.88
2023-02-07T22:06:07.723Z,3.70
2023-02-07T22:08:35.925Z,4.00
2023-02-07T22:11:07.418Z,4.00
2023-02-07T22:13:35.381Z,3.90
2023-02-07T22:16:02.562Z,3.70
2023-02-07T22:18:29.356Z,3.80
2023-02-07T22:20:56.148Z,3.70
2023-02-07T22:23:22.875Z,3.80
2023-02-07T22:25:52.044Z,4.03
2023-02-07T22:28:18.764Z,3.88
2023-02-07T22:30:45.965Z,3.83
2023-02-07T22:33:13.015Z,4.07
2023-02-07T22:35:41.643Z,4.15
2023-02-07T22:38:10.173Z,3.78
2023-02-07T22:40:38.128Z,4.05
2023-02-07T22:43:08.223Z,4.20
2023-02-07T22:45:38.895Z,3.80
2023-02-07T22:48:06.619Z,3.70
2023-02-07T22:50:33.403Z,3.95
2023-02-07T22:53:00.144Z,3.63
2023-02-07T22:55:26.902Z,4.13
2023-02-07T22:57:54.063Z,3.85
2023-02-07T23:00:21.942Z,3.78
2023-02-07T23:02:48.812Z,3.90
2023-02-07T23:05:15.533Z,4.10
2023-02-07T23:07:43.708Z,4.03
2023-02-07T23:10:11.099Z,3.95
2023-02-07T23:12:39.018Z,4.13
2023-02-07T23:15:06.345Z,3.88
2023-02-07T23:17:33.143Z,4.03
2023-02-07T23:19:59.845Z,3.75
2023-02-07T23:22:26.627Z,3.95
2023-02-07T23:24:55.282Z,3.90
2023-02-07T23:27:22.016Z,3.80
2023-02-07T23:29:48.703Z,3.80
2023-02-07T23:32:16.500Z,3.95
2023-02-07T23:34:43.276Z,3.60
2023-02-07T23:37:09.978Z,3.20
2023-02-07T23:39:36.799Z,4.00
2023-02-07T23:42:03.627Z,3.58
2023-02-07T23:44:30.356Z,4.07
2023-02-07T23:46:57.082Z,3.80
2023-02-07T23:49:23.772Z,3.83
2023-02-07T23:51:50.464Z,3.88
2023-02-07T23:54:17.199Z,3.67
2023-02-07T23:56:43.890Z,3.58
2023-02-07T23:59:11.624Z,4.10
